sensor_id;sensor_type;location;lat;lon;timestamp;pressure;altitude;pressure_sealevel;temperature;humidity
19286;BME280;9776;50.798;6.430;2023-12-14T00:01:57;99299.44;;;9.35;78.61
19286;BME280;9776;50.798;6.430;2023-12-14T00:04:27;99301.75;;;9.38;78.68
19286;BME280;9776;50.798;6.430;2023-12-14T00:06:54;99302.41;;;9.40;78.42
19286;BME280;9776;50.798;6.430;2023-12-14T00:09:21;99315.38;;;9.41;78.57
19286;BME280;9776;50.798;6.430;2023-12-14T00:11:50;99312.75;;;9.41;78.89
19286;BME280;9776;50.798;6.430;2023-12-14T00:14:17;99311.13;;;9.40;78.87
19286;BME280;9776;50.798;6.430;2023-12-14T00:16:43;99319.81;;;9.41;78.98
19286;BME280;9776;50.798;6.430;2023-12-14T00:19:10;99326.09;;;9.40;78.98
19286;BME280;9776;50.798;6.430;2023-12-14T00:21:37;99335.63;;;9.41;78.97
19286;BME280;9776;50.798;6.430;2023-12-14T00:24:05;99335.28;;;9.44;79.06
19286;BME280;9776;50.798;6.430;2023-12-14T00:26:33;99341.72;;;9.41;78.98
19286;BME280;9776;50.798;6.430;2023-12-14T00:29:02;99340.88;;;9.41;79.26
19286;BME280;9776;50.798;6.430;2023-12-14T00:31:29;99342.72;;;9.40;79.16
19286;BME280;9776;50.798;6.430;2023-12-14T00:33:57;99350.44;;;9.42;79.11
19286;BME280;9776;50.798;6.430;2023-12-14T00:36:24;99346.34;;;9.39;79.22
19286;BME280;9776;50.798;6.430;2023-12-14T00:38:51;99361.31;;;9.39;79.50
19286;BME280;9776;50.798;6.430;2023-12-14T00:41:18;99361.63;;;9.44;79.37
19286;BME280;9776;50.798;6.430;2023-12-14T00:43:45;99370.69;;;9.41;79.63
19286;BME280;9776;50.798;6.430;2023-12-14T00:46:13;99375.81;;;9.43;79.38
19286;BME280;9776;50.798;6.430;2023-12-14T00:48:40;99380.06;;;9.44;79.35
19286;BME280;9776;50.798;6.430;2023-12-14T00:51:07;99387.00;;;9.45;79.59
19286;BME280;9776;50.798;6.430;2023-12-14T00:53:35;99391.28;;;9.46;79.59
19286;BME280;9776;50.798;6.430;2023-12-14T00:56:02;99389.47;;;9.46;79.72
19286;BME280;9776;50.798;6.430;2023-12-14T00:58:32;99401.13;;;9.44;79.37
19286;BME280;9776;50.798;6.430;2023-12-14T01:01:00;99404.78;;;9.43;79.58
19286;BME280;9776;50.798;6.430;2023-12-14T01:03:31;99404.78;;;9.43;79.67
19286;BME280;9776;50.798;6.430;2023-12-14T01:05:58;99410.19;;;9.41;79.82
19286;BME280;9776;50.798;6.430;2023-12-14T01:08:27;99414.47;;;9.42;79.86
19286;BME280;9776;50.798;6.430;2023-12-14T01:10:55;99420.06;;;9.39;80.03
19286;BME280;9776;50.798;6.430;2023-12-14T01:13:22;99421.06;;;9.38;79.96
19286;BME280;9776;50.798;6.430;2023-12-14T01:15:50;99423.69;;;9.38;80.03
19286;BME280;9776;50.798;6.430;2023-12-14T01:18:17;99428.94;;;9.38;80.07
19286;BME280;9776;50.798;6.430;2023-12-14T01:20:45;99438.00;;;9.36;80.12
19286;BME280;9776;50.798;6.430;2023-12-14T01:23:13;99433.75;;;9.35;80.29
19286;BME280;9776;50.798;6.430;2023-12-14T01:25:40;99441.78;;;9.33;80.32
19286;BME280;9776;50.798;6.430;2023-12-14T01:28:07;99456.75;;;9.33;80.45
19286;BME280;9776;50.798;6.430;2023-12-14T01:30:34;99459.91;;;9.28;80.43
19286;BME280;9776;50.798;6.430;2023-12-14T01:33:01;99461.56;;;9.29;80.32
19286;BME280;9776;50.798;6.430;2023-12-14T01:35:28;99456.44;;;9.28;80.45
19286;BME280;9776;50.798;6.430;2023-12-14T01:37:57;99464.34;;;9.28;80.57
19286;BME280;9776;50.798;6.430;2023-12-14T01:40:25;99473.22;;;9.27;80.67
19286;BME280;9776;50.798;6.430;2023-12-14T01:42:53;99479.47;;;9.26;80.62
19286;BME280;9776;50.798;6.430;2023-12-14T01:45:23;99481.28;;;9.25;80.63
19286;BME280;9776;50.798;6.430;2023-12-14T01:47:50;99485.41;;;9.28;80.54
19286;BME280;9776;50.798;6.430;2023-12-14T01:50:17;99489.00;;;9.27;80.76
19286;BME280;9776;50.798;6.430;2023-12-14T01:52:44;99490.66;;;9.28;80.96
19286;BME280;9776;50.798;6.430;2023-12-14T01:55:12;99495.94;;;9.28;80.87
19286;BME280;9776;50.798;6.430;2023-12-14T01:57:39;99507.28;;;9.28;80.84
19286;BME280;9776;50.798;6.430;2023-12-14T02:00:07;99503.69;;;9.29;80.98
19286;BME280;9776;50.798;6.430;2023-12-14T02:02:40;99512.56;;;9.28;80.65
19286;BME280;9776;50.798;6.430;2023-12-14T02:05:09;99511.72;;;9.28;80.99
19286;BME280;9776;50.798;6.430;2023-12-14T02:07:37;99515.00;;;9.30;80.99
19286;BME280;9776;50.798;6.430;2023-12-14T02:10:05;99517.81;;;9.28;80.97
19286;BME280;9776;50.798;6.430;2023-12-14T02:12:35;99525.56;;;9.30;81.08
19286;BME280;9776;50.798;6.430;2023-12-14T02:15:02;99531.97;;;9.27;81.21
19286;BME280;9776;50.798;6.430;2023-12-14T02:17:29;99531.81;;;9.29;81.17
19286;BME280;9776;50.798;6.430;2023-12-14T02:19:56;99544.81;;;9.30;81.20
19286;BME280;9776;50.798;6.430;2023-12-14T02:22:26;99551.88;;;9.30;80.99
19286;BME280;9776;50.798;6.430;2023-12-14T02:24:55;99543.66;;;9.25;81.30
19286;BME280;9776;50.798;6.430;2023-12-14T02:27:25;99557.13;;;9.22;81.52
19286;BME280;9776;50.798;6.430;2023-12-14T02:29:52;99560.06;;;9.19;81.47
19286;BME280;9776;50.798;6.430;2023-12-14T02:32:20;99564.50;;;9.18;81.37
19286;BME280;9776;50.798;6.430;2023-12-14T02:34:46;99572.59;;;9.17;81.49
19286;BME280;9776;50.798;6.430;2023-12-14T02:37:13;99573.09;;;9.20;81.30
19286;BME280;9776;50.798;6.430;2023-12-14T02:39:41;99581.47;;;9.24;81.30
19286;BME280;9776;50.798;6.430;2023-12-14T02:42:09;99576.06;;;9.25;81.46
19286;BME280;9776;50.798;6.430;2023-12-14T02:44:36;99582.31;;;9.24;81.32
19286;BME280;9776;50.798;6.430;2023-12-14T02:47:04;99585.78;;;9.25;81.29
19286;BME280;9776;50.798;6.430;2023-12-14T02:49:31;99589.69;;;9.21;81.50
19286;BME280;9776;50.798;6.430;2023-12-14T02:51:58;99600.56;;;9.18;81.50
19286;BME280;9776;50.798;6.430;2023-12-14T02:54:26;99603.53;;;9.15;81.52
19286;BME280;9776;50.798;6.430;2023-12-14T02:56:53;99604.81;;;9.10;81.67
19286;BME280;9776;50.798;6.430;2023-12-14T02:59:21;99616.16;;;9.11;81.64
19286;BME280;9776;50.798;6.430;2023-12-14T03:01:48;99614.50;;;9.10;81.69
19286;BME280;9776;50.798;6.430;2023-12-14T03:04:15;99621.13;;;9.14;81.73
19286;BME280;9776;50.798;6.430;2023-12-14T03:06:43;99622.75;;;9.15;81.60
19286;BME280;9776;50.798;6.430;2023-12-14T03:09:10;99627.69;;;9.18;81.53
19286;BME280;9776;50.798;6.430;2023-12-14T03:11:37;99636.44;;;9.19;81.48
19286;BME280;9776;50.798;6.430;2023-12-14T03:14:04;99643.50;;;9.18;81.57
19286;BME280;9776;50.798;6.430;2023-12-14T03:16:32;99651.09;;;9.21;81.21
19286;BME280;9776;50.798;6.430;2023-12-14T03:19:01;99649.91;;;9.16;81.41
19286;BME280;9776;50.798;6.430;2023-12-14T03:21:29;99654.72;;;9.20;81.33
19286;BME280;9776;50.798;6.430;2023-12-14T03:23:56;99659.19;;;9.28;81.19
19286;BME280;9776;50.798;6.430;2023-12-14T03:26:23;99654.25;;;9.33;80.92
19286;BME280;9776;50.798;6.430;2023-12-14T03:28:51;99669.09;;;9.34;80.73
19286;BME280;9776;50.798;6.430;2023-12-14T03:31:18;99671.88;;;9.32;80.76
19286;BME280;9776;50.798;6.430;2023-12-14T03:33:46;99674.69;;;9.31;80.83
19286;BME280;9776;50.798;6.430;2023-12-14T03:36:13;99678.09;;;9.23;80.66
19286;BME280;9776;50.798;6.430;2023-12-14T03:38:40;99687.63;;;9.24;80.86
19286;BME280;9776;50.798;6.430;2023-12-14T03:41:10;99684.31;;;9.14;80.96
19286;BME280;9776;50.798;6.430;2023-12-14T03:43:38;99694.09;;;9.04;81.34
19286;BME280;9776;50.798;6.430;2023-12-14T03:46:06;99689.44;;;8.98;81.34
19286;BME280;9776;50.798;6.430;2023-12-14T03:48:33;99696.47;;;8.89;81.54
19286;BME280;9776;50.798;6.430;2023-12-14T03:51:04;99693.00;;;8.89;81.53
19286;BME280;9776;50.798;6.430;2023-12-14T03:53:31;99697.06;;;8.83;81.51
19286;BME280;9776;50.798;6.430;2023-12-14T03:55:58;99705.66;;;8.85;81.47
19286;BME280;9776;50.798;6.430;2023-12-14T03:58:25;99713.69;;;8.84;81.54
19286;BME280;9776;50.798;6.430;2023-12-14T04:00:53;99722.59;;;8.83;81.47
19286;BME280;9776;50.798;6.430;2023-12-14T04:03:20;99719.25;;;8.81;81.26
19286;BME280;9776;50.798;6.430;2023-12-14T04:05:47;99725.00;;;8.76;81.47
19286;BME280;9776;50.798;6.430;2023-12-14T04:08:16;99733.50;;;8.70;81.37
19286;BME280;9776;50.798;6.430;2023-12-14T04:10:43;99743.66;;;8.65;81.47
19286;BME280;9776;50.798;6.430;2023-12-14T04:13:10;99737.19;;;8.60;81.73
19286;BME280;9776;50.798;6.430;2023-12-14T04:15:37;99746.22;;;8.57;81.78
19286;BME280;9776;50.798;6.430;2023-12-14T04:18:07;99748.97;;;8.55;81.68
19286;BME280;9776;50.798;6.430;2023-12-14T04:20:35;99749.94;;;8.54;81.65
19286;BME280;9776;50.798;6.430;2023-12-14T04:23:02;99749.94;;;8.54;81.60
19286;BME280;9776;50.798;6.430;2023-12-14T04:25:31;99755.44;;;8.61;81.73
19286;BME280;9776;50.798;6.430;2023-12-14T04:27:58;99764.28;;;8.60;81.40
19286;BME280;9776;50.798;6.430;2023-12-14T04:30:25;99769.19;;;8.55;81.43
19286;BME280;9776;50.798;6.430;2023-12-14T04:32:52;99772.13;;;8.52;81.78
19286;BME280;9776;50.798;6.430;2023-12-14T04:35:23;99768.81;;;8.50;81.74
19286;BME280;9776;50.798;6.430;2023-12-14T04:37:52;99777.97;;;8.46;81.79
19286;BME280;9776;50.798;6.430;2023-12-14T04:40:19;99777.22;;;8.36;82.02
19286;BME280;9776;50.798;6.430;2023-12-14T04:42:48;99785.72;;;8.30;81.97
19286;BME280;9776;50.798;6.430;2023-12-14T04:45:16;99793.19;;;8.25;82.11
19286;BME280;9776;50.798;6.430;2023-12-14T04:47:44;99797.19;;;8.29;82.04
19286;BME280;9776;50.798;6.430;2023-12-14T04:50:11;99797.06;;;8.30;82.15
19286;BME280;9776;50.798;6.430;2023-12-14T04:52:38;99801.84;;;8.35;81.92
19286;BME280;9776;50.798;6.430;2023-12-14T04:55:07;99803.66;;;8.34;81.96
19286;BME280;9776;50.798;6.430;2023-12-14T04:57:35;99809.38;;;8.30;81.84
19286;BME280;9776;50.798;6.430;2023-12-14T05:00:05;99821.09;;;8.26;82.13
19286;BME280;9776;50.798;6.430;2023-12-14T05:02:33;99825.31;;;8.19;82.11
19286;BME280;9776;50.798;6.430;2023-12-14T05:05:00;99830.88;;;8.16;82.30
19286;BME280;9776;50.798;6.430;2023-12-14T05:07:27;99830.69;;;8.17;82.21
19286;BME280;9776;50.798;6.430;2023-12-14T05:09:56;99827.25;;;8.17;82.21
19286;BME280;9776;50.798;6.430;2023-12-14T05:12:24;99826.28;;;8.18;82.13
19286;BME280;9776;50.798;6.430;2023-12-14T05:14:52;99830.66;;;8.27;81.79
19286;BME280;9776;50.798;6.430;2023-12-14T05:17:22;99831.78;;;8.34;81.68
19286;BME280;9776;50.798;6.430;2023-12-14T05:19:49;99838.00;;;8.33;81.45
19286;BME280;9776;50.798;6.430;2023-12-14T05:22:16;99838.28;;;8.30;81.71
19286;BME280;9776;50.798;6.430;2023-12-14T05:24:47;99846.72;;;8.24;81.86
19286;BME280;9776;50.798;6.430;2023-12-14T05:27:14;99859.03;;;8.23;81.72
19286;BME280;9776;50.798;6.430;2023-12-14T05:29:41;99852.94;;;8.23;81.88
19286;BME280;9776;50.798;6.430;2023-12-14T05:32:09;99855.28;;;8.26;81.80
19286;BME280;9776;50.798;6.430;2023-12-14T05:34:38;99859.88;;;8.24;81.85
19286;BME280;9776;50.798;6.430;2023-12-14T05:37:05;99864.19;;;8.15;81.84
19286;BME280;9776;50.798;6.430;2023-12-14T05:39:32;99863.94;;;8.09;82.06
19286;BME280;9776;50.798;6.430;2023-12-14T05:41:59;99873.94;;;8.05;82.37
19286;BME280;9776;50.798;6.430;2023-12-14T05:44:26;99879.31;;;8.04;82.37
19286;BME280;9776;50.798;6.430;2023-12-14T05:46:53;99883.50;;;7.96;82.23
19286;BME280;9776;50.798;6.430;2023-12-14T05:49:20;99888.06;;;7.94;82.26
19286;BME280;9776;50.798;6.430;2023-12-14T05:51:49;99895.13;;;7.94;82.25
19286;BME280;9776;50.798;6.430;2023-12-14T05:54:16;99908.81;;;7.88;82.36
19286;BME280;9776;50.798;6.430;2023-12-14T05:56:43;99908.44;;;7.83;82.61
19286;BME280;9776;50.798;6.430;2023-12-14T05:59:10;99912.16;;;7.80;82.74
19286;BME280;9776;50.798;6.430;2023-12-14T06:01:38;99926.25;;;7.79;82.61
19286;BME280;9776;50.798;6.430;2023-12-14T06:04:05;99935.41;;;7.75;82.86
19286;BME280;9776;50.798;6.430;2023-12-14T06:06:32;99941.78;;;7.73;82.74
19286;BME280;9776;50.798;6.430;2023-12-14T06:09:01;99947.03;;;7.73;82.78
19286;BME280;9776;50.798;6.430;2023-12-14T06:11:28;99952.28;;;7.73;82.68
19286;BME280;9776;50.798;6.430;2023-12-14T06:13:55;99947.59;;;7.67;82.60
19286;BME280;9776;50.798;6.430;2023-12-14T06:16:23;99958.94;;;7.67;82.78
19286;BME280;9776;50.798;6.430;2023-12-14T06:18:50;99962.81;;;7.63;82.63
19286;BME280;9776;50.798;6.430;2023-12-14T06:21:17;99969.72;;;7.64;82.91
19286;BME280;9776;50.798;6.430;2023-12-14T06:23:47;99970.00;;;7.61;82.85
19286;BME280;9776;50.798;6.430;2023-12-14T06:26:15;99978.72;;;7.62;82.78
19286;BME280;9776;50.798;6.430;2023-12-14T06:28:42;99986.72;;;7.60;82.85
19286;BME280;9776;50.798;6.430;2023-12-14T06:31:12;99991.41;;;7.66;82.49
19286;BME280;9776;50.798;6.430;2023-12-14T06:33:41;99993.38;;;7.64;82.50
19286;BME280;9776;50.798;6.430;2023-12-14T06:36:08;100000.13;;;7.67;82.63
19286;BME280;9776;50.798;6.430;2023-12-14T06:38:38;99999.97;;;7.68;82.42
19286;BME280;9776;50.798;6.430;2023-12-14T06:41:05;100009.81;;;7.66;82.63
19286;BME280;9776;50.798;6.430;2023-12-14T06:43:36;100012.56;;;7.74;82.28
19286;BME280;9776;50.798;6.430;2023-12-14T06:46:03;100015.34;;;7.73;82.39
19286;BME280;9776;50.798;6.430;2023-12-14T06:48:31;100014.50;;;7.72;82.64
19286;BME280;9776;50.798;6.430;2023-12-14T06:50:57;100021.69;;;7.70;82.50
19286;BME280;9776;50.798;6.430;2023-12-14T06:53:25;100021.97;;;7.67;82.43
19286;BME280;9776;50.798;6.430;2023-12-14T06:55:52;100030.13;;;7.64;82.64
19286;BME280;9776;50.798;6.430;2023-12-14T06:58:19;100032.03;;;7.62;82.72
19286;BME280;9776;50.798;6.430;2023-12-14T07:00:48;100036.06;;;7.66;82.66
19286;BME280;9776;50.798;6.430;2023-12-14T07:03:15;100037.84;;;7.66;82.68
19286;BME280;9776;50.798;6.430;2023-12-14T07:05:43;100039.25;;;7.60;82.91
19286;BME280;9776;50.798;6.430;2023-12-14T07:08:09;100047.00;;;7.62;82.91
19286;BME280;9776;50.798;6.430;2023-12-14T07:10:37;100055.00;;;7.60;82.75
19286;BME280;9776;50.798;6.430;2023-12-14T07:13:05;100067.19;;;7.61;82.91
19286;BME280;9776;50.798;6.430;2023-12-14T07:15:33;100069.66;;;7.63;82.64
19286;BME280;9776;50.798;6.430;2023-12-14T07:18:02;100067.72;;;7.74;82.60
19286;BME280;9776;50.798;6.430;2023-12-14T07:20:29;100080.84;;;7.74;82.62
19286;BME280;9776;50.798;6.430;2023-12-14T07:22:56;100092.47;;;7.72;82.65
19286;BME280;9776;50.798;6.430;2023-12-14T07:25:23;100097.03;;;7.70;82.48
19286;BME280;9776;50.798;6.430;2023-12-14T07:27:50;100105.19;;;7.67;82.77
19286;BME280;9776;50.798;6.430;2023-12-14T07:30:18;100107.13;;;7.55;82.79
19286;BME280;9776;50.798;6.430;2023-12-14T07:32:45;100113.16;;;7.46;82.98
19286;BME280;9776;50.798;6.430;2023-12-14T07:35:14;100120.91;;;7.38;83.22
19286;BME280;9776;50.798;6.430;2023-12-14T07:37:41;100129.47;;;7.40;83.45
19286;BME280;9776;50.798;6.430;2023-12-14T07:40:08;100129.34;;;7.41;83.39
19286;BME280;9776;50.798;6.430;2023-12-14T07:42:36;100129.19;;;7.43;83.11
19286;BME280;9776;50.798;6.430;2023-12-14T07:45:04;100141.22;;;7.46;83.10
19286;BME280;9776;50.798;6.430;2023-12-14T07:47:31;100139.13;;;7.39;83.01
19286;BME280;9776;50.798;6.430;2023-12-14T07:49:58;100143.81;;;7.36;83.12
19286;BME280;9776;50.798;6.430;2023-12-14T07:52:30;100144.53;;;7.38;83.00
19286;BME280;9776;50.798;6.430;2023-12-14T07:54:59;100156.25;;;7.34;83.10
19286;BME280;9776;50.798;6.430;2023-12-14T07:57:26;100160.66;;;7.33;83.15
19286;BME280;9776;50.798;6.430;2023-12-14T07:59:53;100166.91;;;7.32;83.01
19286;BME280;9776;50.798;6.430;2023-12-14T08:02:20;100160.13;;;7.30;83.13
19286;BME280;9776;50.798;6.430;2023-12-14T08:04:48;100167.28;;;7.28;82.99
19286;BME280;9776;50.798;6.430;2023-12-14T08:07:15;100179.72;;;7.26;83.18
19286;BME280;9776;50.798;6.430;2023-12-14T08:09:44;100182.34;;;7.26;83.08
19286;BME280;9776;50.798;6.430;2023-12-14T08:12:11;100185.66;;;7.28;83.23
19286;BME280;9776;50.798;6.430;2023-12-14T08:14:39;100191.88;;;7.27;83.19
19286;BME280;9776;50.798;6.430;2023-12-14T08:17:09;100194.44;;;7.17;83.23
19286;BME280;9776;50.798;6.430;2023-12-14T08:19:36;100194.56;;;7.16;83.14
19286;BME280;9776;50.798;6.430;2023-12-14T08:22:04;100199.81;;;7.16;83.18
19286;BME280;9776;50.798;6.430;2023-12-14T08:24:33;100208.41;;;7.18;83.21
19286;BME280;9776;50.798;6.430;2023-12-14T08:27:04;100214.25;;;7.21;82.95
19286;BME280;9776;50.798;6.430;2023-12-14T08:29:31;100214.66;;;7.26;82.88
19286;BME280;9776;50.798;6.430;2023-12-14T08:31:58;100224.59;;;7.23;82.98
19286;BME280;9776;50.798;6.430;2023-12-14T08:34:32;100230.00;;;7.21;82.88
19286;BME280;9776;50.798;6.430;2023-12-14T08:37:00;100228.38;;;7.30;83.03
19286;BME280;9776;50.798;6.430;2023-12-14T08:39:27;100246.19;;;7.36;82.59
19286;BME280;9776;50.798;6.430;2023-12-14T08:41:55;100246.28;;;7.25;82.61
19286;BME280;9776;50.798;6.430;2023-12-14T08:44:24;100250.59;;;7.26;82.91
19286;BME280;9776;50.798;6.430;2023-12-14T08:46:52;100252.13;;;7.28;82.99
19286;BME280;9776;50.798;6.430;2023-12-14T08:49:19;100263.97;;;7.23;82.84
19286;BME280;9776;50.798;6.430;2023-12-14T08:51:48;100271.84;;;7.23;83.03
19286;BME280;9776;50.798;6.430;2023-12-14T08:54:15;100273.25;;;7.27;82.83
19286;BME280;9776;50.798;6.430;2023-12-14T08:56:43;100273.25;;;7.27;82.89
19286;BME280;9776;50.798;6.430;2023-12-14T08:59:12;100278.50;;;7.27;82.85
19286;BME280;9776;50.798;6.430;2023-12-14T09:01:41;100288.88;;;7.28;82.80
19286;BME280;9776;50.798;6.430;2023-12-14T09:04:10;100293.28;;;7.28;82.73
19286;BME280;9776;50.798;6.430;2023-12-14T09:06:37;100297.94;;;7.24;82.89
19286;BME280;9776;50.798;6.430;2023-12-14T09:09:08;100300.53;;;7.15;82.80
19286;BME280;9776;50.798;6.430;2023-12-14T09:11:41;100310.19;;;7.14;82.93
19286;BME280;9776;50.798;6.430;2023-12-14T09:14:12;100308.41;;;7.15;83.18
19286;BME280;9776;50.798;6.430;2023-12-14T09:16:40;100308.53;;;7.13;83.15
19286;BME280;9776;50.798;6.430;2023-12-14T09:19:08;100317.47;;;7.11;83.24
19286;BME280;9776;50.798;6.430;2023-12-14T09:21:35;100320.44;;;7.17;82.81
19286;BME280;9776;50.798;6.430;2023-12-14T09:24:04;100315.03;;;7.19;82.81
19286;BME280;9776;50.798;6.430;2023-12-14T09:26:32;100322.22;;;7.17;83.03
19286;BME280;9776;50.798;6.430;2023-12-14T09:28:59;100317.22;;;7.14;83.00
19286;BME280;9776;50.798;6.430;2023-12-14T09:31:27;100326.09;;;7.13;83.11
19286;BME280;9776;50.798;6.430;2023-12-14T09:33:59;100333.41;;;7.19;82.99
19286;BME280;9776;50.798;6.430;2023-12-14T09:36:28;100332.38;;;7.21;82.90
19286;BME280;9776;50.798;6.430;2023-12-14T09:38:56;100337.63;;;7.21;82.79
19286;BME280;9776;50.798;6.430;2023-12-14T09:41:24;100346.03;;;7.25;82.52
19286;BME280;9776;50.798;6.430;2023-12-14T09:43:52;100342.53;;;7.35;82.55
19286;BME280;9776;50.798;6.430;2023-12-14T09:46:21;100350.09;;;7.29;82.45
19286;BME280;9776;50.798;6.430;2023-12-14T09:48:50;100356.03;;;7.31;82.71
19286;BME280;9776;50.798;6.430;2023-12-14T09:51:20;100362.81;;;7.33;82.47
19286;BME280;9776;50.798;6.430;2023-12-14T09:53:49;100364.56;;;7.44;82.58
19286;BME280;9776;50.798;6.430;2023-12-14T09:56:16;100362.50;;;7.48;82.08
19286;BME280;9776;50.798;6.430;2023-12-14T09:58:44;100366.97;;;7.57;81.98
19286;BME280;9776;50.798;6.430;2023-12-14T10:01:21;100363.97;;;7.61;81.65
19286;BME280;9776;50.798;6.430;2023-12-14T10:03:49;100378.97;;;7.70;81.52
19286;BME280;9776;50.798;6.430;2023-12-14T10:06:25;100367.09;;;7.76;81.29
19286;BME280;9776;50.798;6.430;2023-12-14T10:08:59;100372.38;;;7.76;81.36
19286;BME280;9776;50.798;6.430;2023-12-14T10:11:27;100390.44;;;7.69;81.44
19286;BME280;9776;50.798;6.430;2023-12-14T10:13:54;100387.53;;;7.72;81.69
19286;BME280;9776;50.798;6.430;2023-12-14T10:16:32;100402.41;;;7.62;81.75
19286;BME280;9776;50.798;6.430;2023-12-14T10:19:00;100405.53;;;7.56;81.81
19286;BME280;9776;50.798;6.430;2023-12-14T10:21:29;100407.97;;;7.48;82.14
19286;BME280;9776;50.798;6.430;2023-12-14T10:23:56;100422.34;;;7.44;82.25
19286;BME280;9776;50.798;6.430;2023-12-14T10:26:25;100427.97;;;7.39;82.31
19286;BME280;9776;50.798;6.430;2023-12-14T10:28:53;100426.22;;;7.29;82.47
19286;BME280;9776;50.798;6.430;2023-12-14T10:31:20;100435.53;;;7.22;82.62
19286;BME280;9776;50.798;6.430;2023-12-14T10:33:49;100434.75;;;7.21;82.49
19286;BME280;9776;50.798;6.430;2023-12-14T10:36:25;100443.31;;;7.23;82.68
19286;BME280;9776;50.798;6.430;2023-12-14T10:38:57;100446.28;;;7.30;82.34
19286;BME280;9776;50.798;6.430;2023-12-14T10:41:31;100451.28;;;7.33;82.09
19286;BME280;9776;50.798;6.430;2023-12-14T10:44:00;100449.34;;;7.35;82.20
19286;BME280;9776;50.798;6.430;2023-12-14T10:46:30;100458.47;;;7.52;81.73
19286;BME280;9776;50.798;6.430;2023-12-14T10:49:01;100464.41;;;7.54;81.55
19286;BME280;9776;50.798;6.430;2023-12-14T10:51:29;100463.13;;;7.48;81.43
19286;BME280;9776;50.798;6.430;2023-12-14T10:53:59;100466.47;;;7.50;81.25
19286;BME280;9776;50.798;6.430;2023-12-14T10:56:26;100466.72;;;7.47;81.26
19286;BME280;9776;50.798;6.430;2023-12-14T10:58:55;100473.03;;;7.44;81.55
19286;BME280;9776;50.798;6.430;2023-12-14T11:01:24;100469.97;;;7.39;81.41
19286;BME280;9776;50.798;6.430;2023-12-14T11:03:58;100476.56;;;7.34;81.43
19286;BME280;9776;50.798;6.430;2023-12-14T11:06:30;100480.47;;;7.39;81.29
19286;BME280;9776;50.798;6.430;2023-12-14T11:09:01;100484.38;;;7.45;81.13
19286;BME280;9776;50.798;6.430;2023-12-14T11:11:40;100487.16;;;7.43;80.87
19286;BME280;9776;50.798;6.430;2023-12-14T11:14:11;100481.91;;;7.43;81.10
19286;BME280;9776;50.798;6.430;2023-12-14T11:16:40;100486.56;;;7.40;81.13
19286;BME280;9776;50.798;6.430;2023-12-14T11:19:27;100487.31;;;7.31;81.04
19286;BME280;9776;50.798;6.430;2023-12-14T11:22:12;100499.16;;;7.25;80.92
19286;BME280;9776;50.798;6.430;2023-12-14T11:25:00;100496.66;;;7.24;81.03
19286;BME280;9776;50.798;6.430;2023-12-14T11:27:42;100504.97;;;7.29;81.02
19286;BME280;9776;50.798;6.430;2023-12-14T11:30:12;100502.34;;;7.29;81.08
19286;BME280;9776;50.798;6.430;2023-12-14T11:32:39;100507.25;;;7.22;81.02
19286;BME280;9776;50.798;6.430;2023-12-14T11:35:06;100514.19;;;7.23;81.08
19286;BME280;9776;50.798;6.430;2023-12-14T11:37:37;100513.34;;;7.23;81.12
19286;BME280;9776;50.798;6.430;2023-12-14T11:40:07;100517.06;;;7.20;81.03
19286;BME280;9776;50.798;6.430;2023-12-14T11:42:38;100515.97;;;7.23;81.04
19286;BME280;9776;50.798;6.430;2023-12-14T11:45:10;100517.41;;;7.27;81.01
19286;BME280;9776;50.798;6.430;2023-12-14T11:47:38;100521.69;;;7.28;80.92
19286;BME280;9776;50.798;6.430;2023-12-14T11:50:07;100522.03;;;7.34;80.84
19286;BME280;9776;50.798;6.430;2023-12-14T11:52:37;100520.31;;;7.44;80.40
19286;BME280;9776;50.798;6.430;2023-12-14T11:55:09;100521.63;;;7.50;80.29
19286;BME280;9776;50.798;6.430;2023-12-14T11:57:37;100519.66;;;7.63;79.82
19286;BME280;9776;50.798;6.430;2023-12-14T12:00:07;100517.97;;;7.73;79.71
19286;BME280;9776;50.798;6.430;2023-12-14T12:02:34;100518.16;;;7.81;79.34
19286;BME280;9776;50.798;6.430;2023-12-14T12:05:02;100520.00;;;7.90;79.05
19286;BME280;9776;50.798;6.430;2023-12-14T12:07:29;100519.28;;;7.88;79.09
19286;BME280;9776;50.798;6.430;2023-12-14T12:09:58;100519.00;;;7.82;79.08
19286;BME280;9776;50.798;6.430;2023-12-14T12:12:27;100522.94;;;7.76;79.53
19286;BME280;9776;50.798;6.430;2023-12-14T12:14:54;100506.66;;;7.82;79.18
19286;BME280;9776;50.798;6.430;2023-12-14T12:17:22;100513.34;;;7.86;78.92
19286;BME280;9776;50.798;6.430;2023-12-14T12:19:50;100515.47;;;7.92;78.89
19286;BME280;9776;50.798;6.430;2023-12-14T12:22:18;100513.97;;;7.99;78.54
19286;BME280;9776;50.798;6.430;2023-12-14T12:24:45;100520.78;;;8.02;78.62
19286;BME280;9776;50.798;6.430;2023-12-14T12:27:12;100528.97;;;8.09;78.50
19286;BME280;9776;50.798;6.430;2023-12-14T12:29:42;100528.72;;;8.12;78.19
19286;BME280;9776;50.798;6.430;2023-12-14T12:32:09;100528.47;;;8.15;78.08
19286;BME280;9776;50.798;6.430;2023-12-14T12:34:37;100537.19;;;8.15;77.87
19286;BME280;9776;50.798;6.430;2023-12-14T12:37:04;100543.97;;;8.18;77.71
19286;BME280;9776;50.798;6.430;2023-12-14T12:39:32;100542.97;;;8.09;78.09
19286;BME280;9776;50.798;6.430;2023-12-14T12:41:59;100548.72;;;8.03;78.21
19286;BME280;9776;50.798;6.430;2023-12-14T12:44:28;100551.41;;;7.92;78.28
19286;BME280;9776;50.798;6.430;2023-12-14T12:46:57;100554.44;;;7.87;78.46
19286;BME280;9776;50.798;6.430;2023-12-14T12:49:25;100556.97;;;7.78;78.87
19286;BME280;9776;50.798;6.430;2023-12-14T12:51:54;100564.28;;;7.74;78.73
19286;BME280;9776;50.798;6.430;2023-12-14T12:54:22;100563.94;;;7.68;78.99
19286;BME280;9776;50.798;6.430;2023-12-14T12:56:50;100562.63;;;7.62;78.87
19286;BME280;9776;50.798;6.430;2023-12-14T12:59:17;100566.34;;;7.60;78.84
19286;BME280;9776;50.798;6.430;2023-12-14T13:01:45;100567.69;;;7.54;79.10
19286;BME280;9776;50.798;6.430;2023-12-14T13:04:24;100576.31;;;7.45;79.01
19286;BME280;9776;50.798;6.430;2023-12-14T13:06:52;100573.19;;;7.51;78.99
19286;BME280;9776;50.798;6.430;2023-12-14T13:09:20;100577.00;;;7.58;78.62
19286;BME280;9776;50.798;6.430;2023-12-14T13:11:49;100582.56;;;7.65;78.38
19286;BME280;9776;50.798;6.430;2023-12-14T13:14:16;100582.56;;;7.65;78.27
19286;BME280;9776;50.798;6.430;2023-12-14T13:16:44;100586.75;;;7.67;78.32
19286;BME280;9776;50.798;6.430;2023-12-14T13:19:13;100587.00;;;7.64;78.12
19286;BME280;9776;50.798;6.430;2023-12-14T13:21:43;100584.63;;;7.61;78.35
19286;BME280;9776;50.798;6.430;2023-12-14T13:24:10;100587.25;;;7.61;78.25